Lavaltrie, Canada
Current Conditions -  °F | °C
As of 8:00 PM on Wednesday 22 Oct 2014 (Local Time) from CYHU Reporting Station
Few Clouds Few Clouds  
Wind Chill:   Ceiling: Unl
Heat Index:   Visibility: 9mi
Dew Point:   Wind: 16mph
Humidity: 62%   Direction: 30°NNE
Pressure: 30.23"   Gusts: 25mph
Location:  45.88°N, 73.28°W
Report Text: CYHU 230000Z AUTO 03014G22KT 9SM FEW170 08/01 A3023 RMK SLP237
Loading
Personal Weather Stations






























Interactive Weather Map
Tropical Storm Tracking
New forecast layout! Learn more

10-Day Weather Forecast

Advertisements
Track Severe Weather on mobile